createdAt,value
2018-12-29T00:01:52.701Z,87.19
2018-12-29T00:06:56.883Z,87.39
2018-12-29T00:12:01.098Z,87.16
2018-12-29T00:17:05.342Z,87.58
2018-12-29T00:22:09.565Z,87.37
2018-12-29T00:27:13.673Z,87.00
2018-12-29T00:32:17.795Z,87.18
2018-12-29T00:37:21.811Z,86.87
2018-12-29T00:42:25.818Z,86.98
2018-12-29T00:47:29.935Z,87.78
2018-12-29T00:52:33.971Z,87.79
2018-12-29T00:57:38.022Z,87.91
2018-12-29T01:02:42.033Z,87.36
2018-12-29T01:07:45.966Z,87.31
2018-12-29T01:12:49.934Z,87.43
2018-12-29T01:17:53.845Z,87.11
2018-12-29T01:22:57.777Z,86.70
2018-12-29T01:28:01.768Z,86.81
2018-12-29T01:33:05.785Z,86.43
2018-12-29T01:38:09.701Z,86.41
2018-12-29T01:43:13.686Z,85.81
2018-12-29T01:48:17.767Z,86.06
2018-12-29T01:53:21.694Z,85.61
2018-12-29T01:58:25.802Z,85.36
2018-12-29T02:03:29.658Z,84.67
2018-12-29T02:08:33.609Z,84.91
2018-12-29T02:13:37.619Z,84.84
2018-12-29T02:18:41.493Z,84.87
2018-12-29T02:23:45.594Z,84.99
2018-12-29T02:28:49.635Z,84.71
2018-12-29T02:33:53.541Z,85.34
2018-12-29T02:38:57.591Z,85.22
2018-12-29T02:44:01.443Z,85.22
2018-12-29T02:49:05.516Z,85.77
2018-12-29T02:54:09.503Z,86.11
2018-12-29T02:59:13.562Z,86.06
2018-12-29T03:04:17.562Z,86.21
2018-12-29T03:09:21.438Z,86.38
2018-12-29T03:14:25.515Z,86.01
2018-12-29T03:19:29.442Z,85.25
2018-12-29T03:24:33.398Z,85.42
2018-12-29T03:29:37.451Z,85.27
2018-12-29T03:34:41.537Z,85.13
2018-12-29T03:39:45.488Z,85.56
2018-12-29T03:44:49.733Z,85.26
2018-12-29T03:49:53.729Z,85.87
2018-12-29T03:54:57.649Z,86.05
2018-12-29T04:00:01.613Z,85.79
2018-12-29T04:05:06.239Z,85.71
2018-12-29T04:10:14.419Z,85.86
2018-12-29T04:15:18.430Z,86.90
2018-12-29T04:20:22.480Z,86.28
2018-12-29T04:25:26.760Z,85.74
2018-12-29T04:30:30.779Z,85.12
2018-12-29T04:35:34.937Z,84.70
2018-12-29T04:40:38.959Z,85.03
2018-12-29T04:45:43.036Z,85.01
2018-12-29T04:50:47.080Z,85.06
2018-12-29T04:55:51.141Z,84.91
2018-12-29T05:00:55.137Z,84.88
2018-12-29T05:06:00.502Z,84.87
2018-12-29T05:11:04.522Z,84.72
2018-12-29T05:16:12.797Z,84.23
2018-12-29T05:21:14.080Z,84.51
2018-12-29T05:26:18.144Z,84.01
2018-12-29T05:31:22.107Z,84.13
2018-12-29T05:36:26.263Z,84.24
2018-12-29T05:41:30.229Z,84.02
2018-12-29T05:46:34.157Z,84.08
2018-12-29T05:51:38.085Z,83.63
2018-12-29T05:56:42.116Z,83.67
2018-12-29T06:01:46.108Z,83.56
2018-12-29T06:06:50.121Z,83.25
2018-12-29T06:11:54.186Z,83.63
2018-12-29T06:16:58.240Z,83.22
2018-12-29T06:22:02.214Z,83.32
2018-12-29T06:27:06.246Z,83.24
2018-12-29T06:32:10.173Z,83.19
2018-12-29T06:37:14.107Z,83.12
2018-12-29T06:42:18.130Z,83.05
2018-12-29T06:47:22.118Z,83.15
2018-12-29T06:52:25.997Z,83.73
2018-12-29T06:57:29.912Z,84.23
2018-12-29T07:02:34.116Z,85.05
2018-12-29T07:07:38.059Z,85.46
2018-12-29T07:12:41.983Z,85.02
2018-12-29T07:17:45.886Z,85.57
2018-12-29T07:22:49.818Z,86.15
2018-12-29T07:27:53.799Z,86.27
2018-12-29T07:32:57.838Z,86.82
2018-12-29T07:38:01.686Z,86.95
2018-12-29T07:43:10.922Z,86.92
2018-12-29T07:48:30.297Z,86.17
2018-12-29T07:53:34.414Z,86.20
2018-12-29T07:58:41.276Z,86.54
2018-12-29T08:03:45.412Z,86.72
2018-12-29T08:08:50.743Z,86.75
2018-12-29T08:13:57.744Z,86.79
2018-12-29T08:19:02.969Z,86.11
2018-12-29T08:24:06.981Z,85.84
2018-12-29T08:29:15.298Z,85.24
2018-12-29T08:34:20.406Z,84.91
2018-12-29T08:39:24.173Z,84.41
2018-12-29T08:44:27.922Z,84.73
2018-12-29T08:49:31.693Z,85.04
2018-12-29T08:54:35.496Z,84.54
2018-12-29T08:59:39.382Z,84.67
2018-12-29T09:04:43.186Z,85.36
2018-12-29T09:09:46.979Z,85.39
2018-12-29T09:14:51.662Z,85.17
2018-12-29T09:19:55.419Z,85.87
2018-12-29T09:24:59.183Z,86.01
2018-12-29T09:30:03.057Z,85.23
2018-12-29T09:35:06.880Z,85.09
2018-12-29T09:40:10.635Z,84.81
2018-12-29T09:45:14.399Z,84.37
2018-12-29T09:50:18.178Z,84.64
2018-12-29T09:55:21.943Z,84.13
2018-12-29T10:00:25.711Z,84.00
2018-12-29T10:05:29.518Z,83.75
2018-12-29T10:10:33.358Z,83.39
2018-12-29T10:15:37.126Z,83.27
2018-12-29T10:20:40.861Z,82.76
2018-12-29T10:25:44.701Z,82.48
2018-12-29T10:30:48.439Z,82.62
2018-12-29T10:35:52.171Z,81.64
2018-12-29T10:40:56.106Z,82.55
2018-12-29T10:45:59.871Z,82.53
2018-12-29T10:51:03.707Z,82.44
2018-12-29T10:56:07.435Z,82.23
2018-12-29T11:01:11.247Z,82.55
2018-12-29T11:06:15.033Z,81.15
2018-12-29T11:11:18.780Z,80.87
2018-12-29T11:16:26.703Z,79.95
2018-12-29T11:21:30.610Z,80.94
2018-12-29T11:26:34.506Z,80.18
2018-12-29T11:31:38.237Z,80.24
2018-12-29T11:36:42.015Z,81.45
2018-12-29T11:41:45.921Z,81.32
2018-12-29T11:46:49.647Z,80.80
2018-12-29T11:51:53.407Z,81.01
2018-12-29T11:56:57.221Z,81.94
2018-12-29T12:02:01.007Z,82.03
2018-12-29T12:07:04.844Z,81.60
2018-12-29T12:12:08.637Z,81.73
2018-12-29T12:17:12.443Z,81.42
2018-12-29T12:22:16.284Z,80.33
2018-12-29T12:27:20.070Z,79.33
2018-12-29T12:32:24.049Z,77.90
2018-12-29T12:37:28.085Z,75.56
2018-12-29T12:42:32.271Z,75.88
2018-12-29T12:47:36.093Z,78.50
2018-12-29T12:52:39.865Z,78.51
2018-12-29T12:57:43.622Z,75.86
2018-12-29T13:02:48.016Z,74.00
2018-12-29T13:07:51.842Z,75.77
2018-12-29T13:12:55.894Z,76.10
2018-12-29T13:17:59.952Z,77.09
2018-12-29T13:23:04.220Z,76.55
2018-12-29T13:28:08.263Z,77.44
2018-12-29T13:33:12.487Z,78.69
2018-12-29T13:38:17.643Z,79.14
2018-12-29T13:43:21.670Z,79.84
2018-12-29T13:48:25.579Z,80.27
2018-12-29T13:53:29.613Z,80.65
2018-12-29T13:58:33.518Z,80.80
2018-12-29T14:03:37.626Z,80.62
2018-12-29T14:08:41.412Z,80.64
2018-12-29T14:13:46.577Z,80.46
2018-12-29T14:18:50.599Z,81.21
2018-12-29T14:23:54.607Z,80.88
2018-12-29T14:28:58.560Z,80.96
2018-12-29T14:34:02.607Z,80.65
2018-12-29T14:39:07.526Z,80.42
2018-12-29T14:44:11.443Z,81.17
2018-12-29T14:49:15.288Z,80.61
2018-12-29T14:54:19.188Z,80.67
2018-12-29T14:59:23.120Z,80.85
2018-12-29T15:04:27.016Z,80.75
2018-12-29T15:09:30.810Z,80.82
2018-12-29T15:14:44.281Z,80.66
2018-12-29T15:19:48.101Z,79.80
2018-12-29T15:24:55.293Z,79.80
2018-12-29T15:30:05.408Z,80.26
2018-12-29T15:35:18.409Z,80.59
2018-12-29T15:40:22.297Z,80.49
2018-12-29T15:45:26.106Z,80.59
2018-12-29T15:50:29.857Z,80.63
2018-12-29T15:55:34.107Z,80.57
2018-12-29T16:00:51.950Z,80.41
2018-12-29T16:05:55.736Z,80.80
2018-12-29T16:10:59.571Z,80.54
2018-12-29T16:16:03.404Z,80.58
2018-12-29T16:21:11.058Z,81.08
2018-12-29T16:26:14.854Z,80.75
2018-12-29T16:31:19.015Z,80.32
2018-12-29T16:36:22.885Z,80.34
2018-12-29T16:41:26.619Z,80.60
2018-12-29T16:46:30.536Z,80.33
2018-12-29T16:51:34.401Z,79.67
2018-12-29T16:56:38.175Z,78.27
2018-12-29T17:01:42.049Z,76.48
2018-12-29T17:07:24.383Z,76.01
2018-12-29T17:12:29.643Z,76.01
2018-12-29T17:17:33.386Z,75.36
2018-12-29T17:22:37.202Z,74.89
2018-12-29T17:27:41.018Z,74.83
2018-12-29T17:32:44.803Z,75.42
2018-12-29T17:37:48.536Z,74.82
2018-12-29T17:42:52.466Z,75.10
2018-12-29T17:47:56.279Z,75.16
2018-12-29T17:53:00.491Z,75.26
2018-12-29T17:58:04.272Z,74.77
2018-12-29T18:03:08.261Z,74.72
2018-12-29T18:08:11.977Z,74.94
2018-12-29T18:13:15.744Z,73.99
2018-12-29T18:18:19.473Z,74.23
2018-12-29T18:23:23.561Z,73.99
2018-12-29T18:28:27.363Z,73.30
2018-12-29T18:33:37.241Z,72.39
2018-12-29T18:38:36.835Z,72.37
2018-12-29T18:43:40.609Z,74.05
2018-12-29T18:48:44.412Z,74.45
2018-12-29T18:53:48.319Z,74.35
2018-12-29T18:58:52.304Z,73.38
2018-12-29T19:03:56.070Z,72.48
2018-12-29T19:09:00.155Z,71.91
2018-12-29T19:14:04.311Z,72.13
2018-12-29T19:19:08.088Z,84.01
2018-12-29T19:24:12.065Z,88.84
2018-12-29T19:29:18.092Z,90.00
2018-12-29T19:34:21.937Z,90.23
2018-12-29T19:39:25.868Z,89.75
2018-12-29T19:44:29.731Z,89.76
2018-12-29T19:49:34.006Z,90.67
2018-12-29T19:54:38.172Z,90.02
2018-12-29T20:00:06.961Z,90.23
2018-12-29T20:05:22.933Z,90.09
2018-12-29T20:10:27.338Z,89.31
2018-12-29T20:15:31.177Z,88.83
2018-12-29T20:20:35.086Z,88.71
2018-12-29T20:26:25.094Z,88.62
2018-12-29T20:31:29.322Z,88.47
2018-12-29T20:36:33.229Z,87.47
2018-12-29T20:41:37.474Z,87.62
2018-12-29T20:46:41.204Z,86.43
2018-12-29T20:51:45.021Z,86.23
2018-12-29T20:56:48.877Z,85.11
2018-12-29T21:01:52.687Z,84.65
2018-12-29T21:06:56.405Z,84.43
2018-12-29T21:12:00.151Z,84.46
2018-12-29T21:17:04.019Z,83.08
2018-12-29T21:22:08.124Z,83.17
2018-12-29T21:27:13.984Z,82.71
2018-12-29T21:32:17.772Z,83.15
2018-12-29T21:37:21.879Z,82.42
2018-12-29T21:42:25.750Z,81.76
2018-12-29T21:47:29.520Z,81.37
2018-12-29T21:52:33.265Z,81.58
2018-12-29T21:57:37.080Z,79.97
2018-12-29T22:02:40.863Z,80.92
2018-12-29T22:07:44.681Z,81.58
2018-12-29T22:12:48.532Z,82.01
2018-12-29T22:17:52.419Z,82.10
2018-12-29T22:22:56.349Z,82.06
2018-12-29T22:28:00.264Z,82.67
2018-12-29T22:33:04.167Z,82.74
2018-12-29T22:38:08.982Z,82.56
2018-12-29T22:43:13.013Z,82.80
2018-12-29T22:48:16.943Z,82.86
2018-12-29T22:53:20.916Z,82.99
2018-12-29T22:58:24.951Z,82.88
2018-12-29T23:03:28.882Z,82.25
2018-12-29T23:08:33.500Z,82.31
2018-12-29T23:13:37.602Z,81.98
2018-12-29T23:18:41.360Z,82.55
2018-12-29T23:23:45.211Z,82.98
2018-12-29T23:28:49.009Z,83.41
2018-12-29T23:33:52.750Z,83.63
2018-12-29T23:38:56.719Z,83.23
2018-12-29T23:44:00.622Z,83.07
2018-12-29T23:49:04.572Z,82.73
2018-12-29T23:54:08.425Z,82.45
2018-12-29T23:59:15.296Z,81.73
